sensor_id;sensor_type;location;lat;lon;timestamp;P1;durP1;ratioP1;P2;durP2;ratioP2
9799;SDS011;4939;52.00085300;4.17406100;2024-01-10T00:02:18;2.17;;;1.00;;
9799;SDS011;4939;52.00085300;4.17406100;2024-01-10T00:04:44;2.13;;;1.20;;
9799;SDS011;4939;52.00085300;4.17406100;2024-01-10T00:07:10;2.80;;;1.20;;
9799;SDS011;4939;52.00085300;4.17406100;2024-01-10T00:09:36;2.90;;;1.17;;
9799;SDS011;4939;52.00085300;4.17406100;2024-01-10T00:12:03;4.35;;;1.50;;
9799;SDS011;4939;52.00085300;4.17406100;2024-01-10T00:14:29;3.03;;;1.23;;
9799;SDS011;4939;52.00085300;4.17406100;2024-01-10T00:16:57;3.47;;;1.60;;
9799;SDS011;4939;52.00085300;4.17406100;2024-01-10T00:19:23;3.60;;;1.33;;
9799;SDS011;4939;52.00085300;4.17406100;2024-01-10T00:21:50;4.38;;;1.60;;
9799;SDS011;4939;52.00085300;4.17406100;2024-01-10T00:24:16;4.65;;;1.48;;
9799;SDS011;4939;52.00085300;4.17406100;2024-01-10T00:26:42;3.70;;;1.50;;
9799;SDS011;4939;52.00085300;4.17406100;2024-01-10T00:29:08;4.28;;;2.03;;
9799;SDS011;4939;52.00085300;4.17406100;2024-01-10T00:31:34;4.28;;;1.42;;
9799;SDS011;4939;52.00085300;4.17406100;2024-01-10T00:34:00;4.90;;;1.73;;
9799;SDS011;4939;52.00085300;4.17406100;2024-01-10T00:36:26;4.55;;;1.95;;
9799;SDS011;4939;52.00085300;4.17406100;2024-01-10T00:38:52;5.20;;;1.48;;
9799;SDS011;4939;52.00085300;4.17406100;2024-01-10T00:41:18;2.97;;;1.63;;
9799;SDS011;4939;52.00085300;4.17406100;2024-01-10T00:43:44;4.47;;;1.65;;
9799;SDS011;4939;52.00085300;4.17406100;2024-01-10T00:46:10;4.90;;;1.80;;
9799;SDS011;4939;52.00085300;4.17406100;2024-01-10T00:48:36;7.82;;;2.10;;
9799;SDS011;4939;52.00085300;4.17406100;2024-01-10T00:51:03;3.05;;;1.52;;
9799;SDS011;4939;52.00085300;4.17406100;2024-01-10T00:53:34;4.28;;;1.88;;
9799;SDS011;4939;52.00085300;4.17406100;2024-01-10T00:56:00;3.75;;;1.88;;
9799;SDS011;4939;52.00085300;4.17406100;2024-01-10T00:58:26;4.53;;;1.85;;
9799;SDS011;4939;52.00085300;4.17406100;2024-01-10T01:00:52;3.63;;;1.52;;
9799;SDS011;4939;52.00085300;4.17406100;2024-01-10T01:03:18;6.53;;;1.80;;
9799;SDS011;4939;52.00085300;4.17406100;2024-01-10T01:05:44;3.35;;;1.45;;
9799;SDS011;4939;52.00085300;4.17406100;2024-01-10T01:08:10;4.47;;;1.92;;
9799;SDS011;4939;52.00085300;4.17406100;2024-01-10T01:10:36;4.68;;;1.98;;
9799;SDS011;4939;52.00085300;4.17406100;2024-01-10T01:13:02;4.00;;;1.70;;
9799;SDS011;4939;52.00085300;4.17406100;2024-01-10T01:15:28;5.50;;;1.60;;
9799;SDS011;4939;52.00085300;4.17406100;2024-01-10T01:17:54;4.75;;;2.05;;
9799;SDS011;4939;52.00085300;4.17406100;2024-01-10T01:20:21;3.50;;;1.70;;
9799;SDS011;4939;52.00085300;4.17406100;2024-01-10T01:22:47;6.10;;;1.73;;
9799;SDS011;4939;52.00085300;4.17406100;2024-01-10T01:25:13;4.18;;;1.55;;
9799;SDS011;4939;52.00085300;4.17406100;2024-01-10T01:27:42;4.18;;;1.85;;
9799;SDS011;4939;52.00085300;4.17406100;2024-01-10T01:30:09;4.35;;;1.70;;
9799;SDS011;4939;52.00085300;4.17406100;2024-01-10T01:32:36;4.05;;;1.85;;
9799;SDS011;4939;52.00085300;4.17406100;2024-01-10T01:35:03;5.65;;;1.80;;
9799;SDS011;4939;52.00085300;4.17406100;2024-01-10T01:37:29;3.10;;;1.40;;
9799;SDS011;4939;52.00085300;4.17406100;2024-01-10T01:39:55;6.32;;;1.80;;
9799;SDS011;4939;52.00085300;4.17406100;2024-01-10T01:42:24;4.32;;;2.00;;
9799;SDS011;4939;52.00085300;4.17406100;2024-01-10T01:44:50;4.80;;;1.73;;
9799;SDS011;4939;52.00085300;4.17406100;2024-01-10T01:47:16;2.85;;;1.35;;
9799;SDS011;4939;52.00085300;4.17406100;2024-01-10T01:49:42;5.43;;;2.13;;
9799;SDS011;4939;52.00085300;4.17406100;2024-01-10T01:52:08;4.78;;;1.65;;
9799;SDS011;4939;52.00085300;4.17406100;2024-01-10T01:54:35;5.85;;;1.98;;
9799;SDS011;4939;52.00085300;4.17406100;2024-01-10T01:57:01;7.03;;;2.10;;
9799;SDS011;4939;52.00085300;4.17406100;2024-01-10T01:59:27;4.80;;;1.85;;
9799;SDS011;4939;52.00085300;4.17406100;2024-01-10T02:01:54;5.32;;;1.75;;
9799;SDS011;4939;52.00085300;4.17406100;2024-01-10T02:04:23;5.75;;;2.00;;
9799;SDS011;4939;52.00085300;4.17406100;2024-01-10T02:06:49;2.13;;;1.13;;
9799;SDS011;4939;52.00085300;4.17406100;2024-01-10T02:09:16;3.70;;;1.48;;
9799;SDS011;4939;52.00085300;4.17406100;2024-01-10T02:11:42;3.63;;;1.48;;
9799;SDS011;4939;52.00085300;4.17406100;2024-01-10T02:14:09;3.75;;;1.65;;
9799;SDS011;4939;52.00085300;4.17406100;2024-01-10T02:16:35;6.22;;;1.85;;
9799;SDS011;4939;52.00085300;4.17406100;2024-01-10T02:19:09;11.68;;;1.98;;
9799;SDS011;4939;52.00085300;4.17406100;2024-01-10T02:21:42;5.13;;;2.05;;
9799;SDS011;4939;52.00085300;4.17406100;2024-01-10T02:24:08;4.75;;;2.00;;
9799;SDS011;4939;52.00085300;4.17406100;2024-01-10T02:26:34;5.13;;;1.73;;
9799;SDS011;4939;52.00085300;4.17406100;2024-01-10T02:29:00;4.78;;;1.70;;
9799;SDS011;4939;52.00085300;4.17406100;2024-01-10T02:31:26;3.38;;;1.65;;
9799;SDS011;4939;52.00085300;4.17406100;2024-01-10T02:33:52;6.25;;;2.08;;
9799;SDS011;4939;52.00085300;4.17406100;2024-01-10T02:36:18;4.03;;;2.00;;
9799;SDS011;4939;52.00085300;4.17406100;2024-01-10T02:38:44;4.50;;;1.60;;
9799;SDS011;4939;52.00085300;4.17406100;2024-01-10T02:41:10;7.55;;;1.70;;
9799;SDS011;4939;52.00085300;4.17406100;2024-01-10T02:43:36;4.15;;;1.65;;
9799;SDS011;4939;52.00085300;4.17406100;2024-01-10T02:46:02;5.80;;;2.20;;
9799;SDS011;4939;52.00085300;4.17406100;2024-01-10T02:48:28;12.80;;;2.97;;
9799;SDS011;4939;52.00085300;4.17406100;2024-01-10T02:50:54;5.45;;;1.90;;
9799;SDS011;4939;52.00085300;4.17406100;2024-01-10T02:53:21;5.10;;;1.80;;
9799;SDS011;4939;52.00085300;4.17406100;2024-01-10T02:55:47;8.85;;;2.15;;
9799;SDS011;4939;52.00085300;4.17406100;2024-01-10T02:58:14;5.05;;;1.83;;
9799;SDS011;4939;52.00085300;4.17406100;2024-01-10T03:00:40;6.07;;;2.33;;
9799;SDS011;4939;52.00085300;4.17406100;2024-01-10T03:03:06;5.18;;;2.08;;
9799;SDS011;4939;52.00085300;4.17406100;2024-01-10T03:05:32;5.22;;;1.90;;
9799;SDS011;4939;52.00085300;4.17406100;2024-01-10T03:07:58;3.80;;;1.83;;
9799;SDS011;4939;52.00085300;4.17406100;2024-01-10T03:10:26;6.45;;;2.47;;
9799;SDS011;4939;52.00085300;4.17406100;2024-01-10T03:12:52;6.65;;;2.53;;
9799;SDS011;4939;52.00085300;4.17406100;2024-01-10T03:15:18;4.97;;;2.58;;
9799;SDS011;4939;52.00085300;4.17406100;2024-01-10T03:17:43;6.53;;;2.42;;
9799;SDS011;4939;52.00085300;4.17406100;2024-01-10T03:20:09;8.68;;;2.70;;
9799;SDS011;4939;52.00085300;4.17406100;2024-01-10T03:22:36;7.75;;;2.70;;
9799;SDS011;4939;52.00085300;4.17406100;2024-01-10T03:25:02;6.50;;;2.92;;
9799;SDS011;4939;52.00085300;4.17406100;2024-01-10T03:27:28;5.93;;;2.28;;
9799;SDS011;4939;52.00085300;4.17406100;2024-01-10T03:29:54;7.00;;;2.22;;
9799;SDS011;4939;52.00085300;4.17406100;2024-01-10T03:32:20;5.78;;;2.28;;
9799;SDS011;4939;52.00085300;4.17406100;2024-01-10T03:34:46;9.75;;;2.80;;
9799;SDS011;4939;52.00085300;4.17406100;2024-01-10T03:37:16;7.18;;;2.40;;
9799;SDS011;4939;52.00085300;4.17406100;2024-01-10T03:39:42;5.20;;;2.67;;
9799;SDS011;4939;52.00085300;4.17406100;2024-01-10T03:42:08;5.00;;;2.70;;
9799;SDS011;4939;52.00085300;4.17406100;2024-01-10T03:44:34;5.97;;;2.95;;
9799;SDS011;4939;52.00085300;4.17406100;2024-01-10T03:47:00;8.88;;;3.05;;
9799;SDS011;4939;52.00085300;4.17406100;2024-01-10T03:49:28;6.25;;;2.53;;
9799;SDS011;4939;52.00085300;4.17406100;2024-01-10T03:51:54;4.03;;;2.60;;
9799;SDS011;4939;52.00085300;4.17406100;2024-01-10T03:54:20;4.97;;;2.33;;
9799;SDS011;4939;52.00085300;4.17406100;2024-01-10T03:56:46;6.05;;;2.78;;
9799;SDS011;4939;52.00085300;4.17406100;2024-01-10T03:59:12;5.95;;;3.00;;
9799;SDS011;4939;52.00085300;4.17406100;2024-01-10T04:01:38;7.18;;;2.90;;
9799;SDS011;4939;52.00085300;4.17406100;2024-01-10T04:04:04;6.45;;;2.75;;
9799;SDS011;4939;52.00085300;4.17406100;2024-01-10T04:06:30;8.40;;;2.53;;
9799;SDS011;4939;52.00085300;4.17406100;2024-01-10T04:08:56;6.82;;;2.95;;
9799;SDS011;4939;52.00085300;4.17406100;2024-01-10T04:11:22;7.53;;;3.28;;
9799;SDS011;4939;52.00085300;4.17406100;2024-01-10T04:13:48;8.07;;;3.08;;
9799;SDS011;4939;52.00085300;4.17406100;2024-01-10T04:16:15;7.68;;;2.75;;
9799;SDS011;4939;52.00085300;4.17406100;2024-01-10T04:18:41;8.35;;;3.60;;
9799;SDS011;4939;52.00085300;4.17406100;2024-01-10T04:21:07;7.63;;;3.10;;
9799;SDS011;4939;52.00085300;4.17406100;2024-01-10T04:23:33;6.32;;;3.00;;
9799;SDS011;4939;52.00085300;4.17406100;2024-01-10T04:26:00;7.78;;;3.50;;
9799;SDS011;4939;52.00085300;4.17406100;2024-01-10T04:28:28;7.10;;;2.47;;
9799;SDS011;4939;52.00085300;4.17406100;2024-01-10T04:30:54;7.85;;;3.65;;
9799;SDS011;4939;52.00085300;4.17406100;2024-01-10T04:33:20;9.68;;;3.38;;
9799;SDS011;4939;52.00085300;4.17406100;2024-01-10T04:35:46;6.55;;;3.05;;
9799;SDS011;4939;52.00085300;4.17406100;2024-01-10T04:38:12;6.95;;;2.97;;
9799;SDS011;4939;52.00085300;4.17406100;2024-01-10T04:40:37;7.72;;;3.55;;
9799;SDS011;4939;52.00085300;4.17406100;2024-01-10T04:43:03;9.75;;;3.20;;
9799;SDS011;4939;52.00085300;4.17406100;2024-01-10T04:45:30;7.65;;;2.92;;
9799;SDS011;4939;52.00085300;4.17406100;2024-01-10T04:47:56;6.55;;;2.83;;
9799;SDS011;4939;52.00085300;4.17406100;2024-01-10T04:50:22;8.50;;;2.90;;
9799;SDS011;4939;52.00085300;4.17406100;2024-01-10T04:52:48;8.48;;;3.45;;
9799;SDS011;4939;52.00085300;4.17406100;2024-01-10T04:55:13;7.43;;;3.10;;
9799;SDS011;4939;52.00085300;4.17406100;2024-01-10T04:57:39;5.75;;;2.63;;
9799;SDS011;4939;52.00085300;4.17406100;2024-01-10T05:00:05;7.47;;;2.97;;
9799;SDS011;4939;52.00085300;4.17406100;2024-01-10T05:02:31;6.35;;;2.65;;
9799;SDS011;4939;52.00085300;4.17406100;2024-01-10T05:04:58;6.78;;;3.17;;
9799;SDS011;4939;52.00085300;4.17406100;2024-01-10T05:07:24;6.85;;;3.28;;
9799;SDS011;4939;52.00085300;4.17406100;2024-01-10T05:09:50;9.65;;;3.25;;
9799;SDS011;4939;52.00085300;4.17406100;2024-01-10T05:12:15;7.65;;;3.38;;
9799;SDS011;4939;52.00085300;4.17406100;2024-01-10T05:14:41;11.07;;;2.70;;
9799;SDS011;4939;52.00085300;4.17406100;2024-01-10T05:17:07;6.43;;;2.60;;
9799;SDS011;4939;52.00085300;4.17406100;2024-01-10T05:19:33;7.13;;;3.10;;
9799;SDS011;4939;52.00085300;4.17406100;2024-01-10T05:22:00;4.40;;;2.20;;
9799;SDS011;4939;52.00085300;4.17406100;2024-01-10T05:24:26;7.88;;;2.85;;
9799;SDS011;4939;52.00085300;4.17406100;2024-01-10T05:26:52;6.45;;;2.90;;
9799;SDS011;4939;52.00085300;4.17406100;2024-01-10T05:29:18;5.65;;;2.92;;
9799;SDS011;4939;52.00085300;4.17406100;2024-01-10T05:31:45;7.32;;;3.30;;
9799;SDS011;4939;52.00085300;4.17406100;2024-01-10T05:34:11;7.53;;;3.10;;
9799;SDS011;4939;52.00085300;4.17406100;2024-01-10T05:36:37;9.25;;;3.47;;
9799;SDS011;4939;52.00085300;4.17406100;2024-01-10T05:39:03;6.32;;;2.63;;
9799;SDS011;4939;52.00085300;4.17406100;2024-01-10T05:41:30;5.82;;;2.45;;
9799;SDS011;4939;52.00085300;4.17406100;2024-01-10T05:43:56;6.25;;;2.47;;
9799;SDS011;4939;52.00085300;4.17406100;2024-01-10T05:46:22;5.20;;;2.80;;
9799;SDS011;4939;52.00085300;4.17406100;2024-01-10T05:48:48;5.85;;;2.55;;
9799;SDS011;4939;52.00085300;4.17406100;2024-01-10T05:51:14;8.52;;;3.47;;
9799;SDS011;4939;52.00085300;4.17406100;2024-01-10T05:53:40;9.90;;;3.38;;
9799;SDS011;4939;52.00085300;4.17406100;2024-01-10T05:56:06;7.18;;;3.10;;
9799;SDS011;4939;52.00085300;4.17406100;2024-01-10T05:58:32;10.82;;;3.40;;
9799;SDS011;4939;52.00085300;4.17406100;2024-01-10T06:00:58;7.03;;;2.53;;
9799;SDS011;4939;52.00085300;4.17406100;2024-01-10T06:03:24;7.25;;;3.08;;
9799;SDS011;4939;52.00085300;4.17406100;2024-01-10T06:05:50;7.55;;;2.90;;
9799;SDS011;4939;52.00085300;4.17406100;2024-01-10T06:08:16;7.45;;;2.58;;
9799;SDS011;4939;52.00085300;4.17406100;2024-01-10T06:10:42;13.13;;;2.92;;
9799;SDS011;4939;52.00085300;4.17406100;2024-01-10T06:13:08;8.77;;;3.40;;
9799;SDS011;4939;52.00085300;4.17406100;2024-01-10T06:15:34;7.70;;;3.15;;
9799;SDS011;4939;52.00085300;4.17406100;2024-01-10T06:18:00;7.95;;;3.97;;
9799;SDS011;4939;52.00085300;4.17406100;2024-01-10T06:20:26;8.10;;;3.70;;
9799;SDS011;4939;52.00085300;4.17406100;2024-01-10T06:22:53;9.27;;;3.25;;
9799;SDS011;4939;52.00085300;4.17406100;2024-01-10T06:25:19;8.02;;;2.90;;
9799;SDS011;4939;52.00085300;4.17406100;2024-01-10T06:27:45;7.78;;;3.38;;
9799;SDS011;4939;52.00085300;4.17406100;2024-01-10T06:30:11;6.22;;;3.10;;
9799;SDS011;4939;52.00085300;4.17406100;2024-01-10T06:32:37;6.78;;;2.90;;
9799;SDS011;4939;52.00085300;4.17406100;2024-01-10T06:35:03;8.60;;;3.55;;
9799;SDS011;4939;52.00085300;4.17406100;2024-01-10T06:37:29;6.85;;;3.10;;
9799;SDS011;4939;52.00085300;4.17406100;2024-01-10T06:39:55;5.72;;;2.55;;
9799;SDS011;4939;52.00085300;4.17406100;2024-01-10T06:42:21;7.57;;;2.90;;
9799;SDS011;4939;52.00085300;4.17406100;2024-01-10T06:44:48;8.10;;;3.10;;
9799;SDS011;4939;52.00085300;4.17406100;2024-01-10T06:47:13;8.13;;;3.45;;
9799;SDS011;4939;52.00085300;4.17406100;2024-01-10T06:49:39;8.73;;;3.70;;
9799;SDS011;4939;52.00085300;4.17406100;2024-01-10T06:52:05;11.80;;;3.80;;
9799;SDS011;4939;52.00085300;4.17406100;2024-01-10T06:54:33;9.05;;;3.60;;
9799;SDS011;4939;52.00085300;4.17406100;2024-01-10T06:57:00;9.23;;;3.05;;
9799;SDS011;4939;52.00085300;4.17406100;2024-01-10T06:59:26;8.57;;;3.05;;
9799;SDS011;4939;52.00085300;4.17406100;2024-01-10T07:01:52;8.38;;;3.00;;
9799;SDS011;4939;52.00085300;4.17406100;2024-01-10T07:04:18;7.25;;;2.92;;
9799;SDS011;4939;52.00085300;4.17406100;2024-01-10T07:06:47;7.10;;;3.22;;
9799;SDS011;4939;52.00085300;4.17406100;2024-01-10T07:09:13;6.22;;;2.80;;
9799;SDS011;4939;52.00085300;4.17406100;2024-01-10T07:11:45;5.70;;;2.97;;
9799;SDS011;4939;52.00085300;4.17406100;2024-01-10T07:14:12;8.02;;;3.03;;
9799;SDS011;4939;52.00085300;4.17406100;2024-01-10T07:16:39;6.55;;;2.97;;
9799;SDS011;4939;52.00085300;4.17406100;2024-01-10T07:19:10;8.13;;;2.80;;
9799;SDS011;4939;52.00085300;4.17406100;2024-01-10T07:21:39;8.13;;;3.00;;
9799;SDS011;4939;52.00085300;4.17406100;2024-01-10T07:24:06;8.40;;;3.05;;
9799;SDS011;4939;52.00085300;4.17406100;2024-01-10T07:26:33;5.93;;;2.90;;
9799;SDS011;4939;52.00085300;4.17406100;2024-01-10T07:29:00;9.23;;;3.35;;
9799;SDS011;4939;52.00085300;4.17406100;2024-01-10T07:31:28;7.72;;;2.97;;
9799;SDS011;4939;52.00085300;4.17406100;2024-01-10T07:33:55;8.73;;;3.20;;
9799;SDS011;4939;52.00085300;4.17406100;2024-01-10T07:36:23;7.63;;;2.95;;
9799;SDS011;4939;52.00085300;4.17406100;2024-01-10T07:38:49;5.53;;;2.63;;
9799;SDS011;4939;52.00085300;4.17406100;2024-01-10T07:41:15;8.63;;;3.30;;
9799;SDS011;4939;52.00085300;4.17406100;2024-01-10T07:43:41;10.27;;;3.08;;
9799;SDS011;4939;52.00085300;4.17406100;2024-01-10T07:46:07;6.90;;;2.88;;
9799;SDS011;4939;52.00085300;4.17406100;2024-01-10T07:48:33;9.65;;;3.63;;
9799;SDS011;4939;52.00085300;4.17406100;2024-01-10T07:50:59;6.07;;;2.47;;
9799;SDS011;4939;52.00085300;4.17406100;2024-01-10T07:53:25;8.00;;;3.40;;
9799;SDS011;4939;52.00085300;4.17406100;2024-01-10T07:55:52;5.85;;;3.00;;
9799;SDS011;4939;52.00085300;4.17406100;2024-01-10T07:58:18;11.57;;;3.50;;
9799;SDS011;4939;52.00085300;4.17406100;2024-01-10T08:00:44;7.13;;;3.28;;
9799;SDS011;4939;52.00085300;4.17406100;2024-01-10T08:03:11;9.65;;;3.40;;
9799;SDS011;4939;52.00085300;4.17406100;2024-01-10T08:05:37;9.80;;;3.45;;
9799;SDS011;4939;52.00085300;4.17406100;2024-01-10T08:08:03;8.75;;;3.25;;
9799;SDS011;4939;52.00085300;4.17406100;2024-01-10T08:10:29;6.63;;;2.60;;
9799;SDS011;4939;52.00085300;4.17406100;2024-01-10T08:12:55;7.00;;;3.25;;
9799;SDS011;4939;52.00085300;4.17406100;2024-01-10T08:15:22;9.68;;;3.70;;
9799;SDS011;4939;52.00085300;4.17406100;2024-01-10T08:17:48;8.10;;;3.33;;
9799;SDS011;4939;52.00085300;4.17406100;2024-01-10T08:20:14;7.38;;;3.00;;
9799;SDS011;4939;52.00085300;4.17406100;2024-01-10T08:22:44;7.68;;;2.65;;
9799;SDS011;4939;52.00085300;4.17406100;2024-01-10T08:25:10;7.35;;;2.88;;
9799;SDS011;4939;52.00085300;4.17406100;2024-01-10T08:27:37;6.25;;;2.50;;
9799;SDS011;4939;52.00085300;4.17406100;2024-01-10T08:30:03;6.38;;;2.85;;
9799;SDS011;4939;52.00085300;4.17406100;2024-01-10T08:32:30;6.53;;;2.97;;
9799;SDS011;4939;52.00085300;4.17406100;2024-01-10T08:34:57;9.52;;;3.22;;
9799;SDS011;4939;52.00085300;4.17406100;2024-01-10T08:37:23;8.98;;;2.90;;
9799;SDS011;4939;52.00085300;4.17406100;2024-01-10T08:39:49;6.63;;;2.95;;
9799;SDS011;4939;52.00085300;4.17406100;2024-01-10T08:42:15;6.80;;;3.13;;
9799;SDS011;4939;52.00085300;4.17406100;2024-01-10T08:44:41;6.00;;;2.55;;
9799;SDS011;4939;52.00085300;4.17406100;2024-01-10T08:47:08;5.25;;;2.40;;
9799;SDS011;4939;52.00085300;4.17406100;2024-01-10T08:49:33;8.75;;;2.72;;
9799;SDS011;4939;52.00085300;4.17406100;2024-01-10T08:51:59;7.35;;;2.90;;
9799;SDS011;4939;52.00085300;4.17406100;2024-01-10T08:54:31;10.23;;;3.15;;
9799;SDS011;4939;52.00085300;4.17406100;2024-01-10T08:56:57;7.97;;;2.97;;
9799;SDS011;4939;52.00085300;4.17406100;2024-01-10T08:59:24;10.23;;;3.20;;
9799;SDS011;4939;52.00085300;4.17406100;2024-01-10T09:01:50;8.68;;;2.70;;
9799;SDS011;4939;52.00085300;4.17406100;2024-01-10T09:04:17;6.60;;;2.80;;
9799;SDS011;4939;52.00085300;4.17406100;2024-01-10T09:06:44;6.90;;;3.00;;
9799;SDS011;4939;52.00085300;4.17406100;2024-01-10T09:09:10;7.13;;;2.88;;
9799;SDS011;4939;52.00085300;4.17406100;2024-01-10T09:11:47;8.20;;;3.10;;
9799;SDS011;4939;52.00085300;4.17406100;2024-01-10T09:14:13;8.20;;;2.95;;
9799;SDS011;4939;52.00085300;4.17406100;2024-01-10T09:16:40;5.90;;;2.80;;
9799;SDS011;4939;52.00085300;4.17406100;2024-01-10T09:19:06;6.25;;;2.65;;
9799;SDS011;4939;52.00085300;4.17406100;2024-01-10T09:21:33;8.07;;;3.47;;
9799;SDS011;4939;52.00085300;4.17406100;2024-01-10T09:23:59;7.60;;;2.97;;
9799;SDS011;4939;52.00085300;4.17406100;2024-01-10T09:26:25;5.82;;;2.60;;
9799;SDS011;4939;52.00085300;4.17406100;2024-01-10T09:28:54;7.32;;;2.83;;
9799;SDS011;4939;52.00085300;4.17406100;2024-01-10T09:31:20;7.78;;;2.90;;
9799;SDS011;4939;52.00085300;4.17406100;2024-01-10T09:33:46;11.82;;;2.92;;
9799;SDS011;4939;52.00085300;4.17406100;2024-01-10T09:36:12;9.80;;;3.33;;
9799;SDS011;4939;52.00085300;4.17406100;2024-01-10T09:38:38;6.93;;;2.90;;
9799;SDS011;4939;52.00085300;4.17406100;2024-01-10T09:41:04;5.32;;;2.25;;
9799;SDS011;4939;52.00085300;4.17406100;2024-01-10T09:43:30;8.27;;;2.97;;
9799;SDS011;4939;52.00085300;4.17406100;2024-01-10T09:45:58;6.43;;;2.70;;
9799;SDS011;4939;52.00085300;4.17406100;2024-01-10T09:48:25;6.53;;;2.80;;
9799;SDS011;4939;52.00085300;4.17406100;2024-01-10T09:50:52;6.13;;;2.38;;
9799;SDS011;4939;52.00085300;4.17406100;2024-01-10T09:53:24;8.15;;;2.83;;
9799;SDS011;4939;52.00085300;4.17406100;2024-01-10T09:55:55;7.63;;;2.85;;
9799;SDS011;4939;52.00085300;4.17406100;2024-01-10T09:58:26;5.75;;;2.60;;
9799;SDS011;4939;52.00085300;4.17406100;2024-01-10T10:00:52;6.65;;;2.53;;
9799;SDS011;4939;52.00085300;4.17406100;2024-01-10T10:03:19;8.10;;;2.53;;
9799;SDS011;4939;52.00085300;4.17406100;2024-01-10T10:05:45;7.63;;;2.47;;
9799;SDS011;4939;52.00085300;4.17406100;2024-01-10T10:08:11;7.97;;;2.78;;
9799;SDS011;4939;52.00085300;4.17406100;2024-01-10T10:10:40;8.05;;;3.15;;
9799;SDS011;4939;52.00085300;4.17406100;2024-01-10T10:13:09;7.18;;;2.78;;
9799;SDS011;4939;52.00085300;4.17406100;2024-01-10T10:15:36;7.15;;;2.97;;
9799;SDS011;4939;52.00085300;4.17406100;2024-01-10T10:18:02;5.70;;;2.78;;
9799;SDS011;4939;52.00085300;4.17406100;2024-01-10T10:20:29;7.93;;;2.88;;
9799;SDS011;4939;52.00085300;4.17406100;2024-01-10T10:25:31;9.00;;;3.20;;
9799;SDS011;4939;52.00085300;4.17406100;2024-01-10T10:28:01;8.60;;;3.03;;
9799;SDS011;4939;52.00085300;4.17406100;2024-01-10T10:30:33;8.50;;;2.83;;
9799;SDS011;4939;52.00085300;4.17406100;2024-01-10T10:32:59;8.60;;;2.75;;
9799;SDS011;4939;52.00085300;4.17406100;2024-01-10T10:35:28;8.38;;;2.90;;
9799;SDS011;4939;52.00085300;4.17406100;2024-01-10T10:37:54;8.10;;;2.88;;
9799;SDS011;4939;52.00085300;4.17406100;2024-01-10T10:40:21;8.68;;;2.80;;
9799;SDS011;4939;52.00085300;4.17406100;2024-01-10T10:42:47;9.80;;;2.58;;
9799;SDS011;4939;52.00085300;4.17406100;2024-01-10T10:45:15;6.35;;;2.47;;
9799;SDS011;4939;52.00085300;4.17406100;2024-01-10T10:47:43;6.45;;;2.67;;
9799;SDS011;4939;52.00085300;4.17406100;2024-01-10T10:50:21;10.10;;;3.38;;
9799;SDS011;4939;52.00085300;4.17406100;2024-01-10T10:52:48;8.75;;;3.15;;
9799;SDS011;4939;52.00085300;4.17406100;2024-01-10T10:55:18;7.22;;;3.17;;
9799;SDS011;4939;52.00085300;4.17406100;2024-01-10T10:57:44;6.70;;;3.03;;
9799;SDS011;4939;52.00085300;4.17406100;2024-01-10T11:00:12;5.40;;;2.53;;
9799;SDS011;4939;52.00085300;4.17406100;2024-01-10T11:02:40;10.25;;;3.00;;
9799;SDS011;4939;52.00085300;4.17406100;2024-01-10T11:05:08;7.40;;;2.95;;
9799;SDS011;4939;52.00085300;4.17406100;2024-01-10T11:07:35;6.72;;;3.00;;
9799;SDS011;4939;52.00085300;4.17406100;2024-01-10T11:10:19;6.28;;;2.63;;
9799;SDS011;4939;52.00085300;4.17406100;2024-01-10T11:18:51;6.32;;;2.35;;
9799;SDS011;4939;52.00085300;4.17406100;2024-01-10T11:24:13;8.13;;;2.60;;
9799;SDS011;4939;52.00085300;4.17406100;2024-01-10T11:26:40;5.00;;;2.67;;
9799;SDS011;4939;52.00085300;4.17406100;2024-01-10T11:29:05;5.20;;;2.17;;
9799;SDS011;4939;52.00085300;4.17406100;2024-01-10T11:31:32;7.47;;;2.50;;
9799;SDS011;4939;52.00085300;4.17406100;2024-01-10T11:34:02;5.65;;;2.90;;
9799;SDS011;4939;52.00085300;4.17406100;2024-01-10T11:36:31;7.97;;;2.50;;
9799;SDS011;4939;52.00085300;4.17406100;2024-01-10T11:39:03;7.97;;;2.33;;
9799;SDS011;4939;52.00085300;4.17406100;2024-01-10T11:41:30;11.02;;;2.78;;
9799;SDS011;4939;52.00085300;4.17406100;2024-01-10T11:46:47;7.50;;;2.55;;
9799;SDS011;4939;52.00085300;4.17406100;2024-01-10T11:49:17;5.97;;;2.20;;
9799;SDS011;4939;52.00085300;4.17406100;2024-01-10T11:51:44;6.90;;;2.83;;
9799;SDS011;4939;52.00085300;4.17406100;2024-01-10T11:54:11;7.80;;;2.47;;
9799;SDS011;4939;52.00085300;4.17406100;2024-01-10T11:56:41;7.57;;;2.78;;
9799;SDS011;4939;52.00085300;4.17406100;2024-01-10T11:59:08;8.05;;;2.55;;
9799;SDS011;4939;52.00085300;4.17406100;2024-01-10T12:01:35;6.07;;;2.38;;
9799;SDS011;4939;52.00085300;4.17406100;2024-01-10T12:04:04;6.55;;;1.95;;
9799;SDS011;4939;52.00085300;4.17406100;2024-01-10T12:06:31;7.05;;;2.50;;
9799;SDS011;4939;52.00085300;4.17406100;2024-01-10T12:08:57;5.60;;;2.25;;
9799;SDS011;4939;52.00085300;4.17406100;2024-01-10T12:11:24;9.15;;;3.08;;
9799;SDS011;4939;52.00085300;4.17406100;2024-01-10T12:13:52;6.38;;;2.88;;
9799;SDS011;4939;52.00085300;4.17406100;2024-01-10T12:16:18;6.65;;;2.83;;
9799;SDS011;4939;52.00085300;4.17406100;2024-01-10T12:18:44;6.75;;;2.47;;
9799;SDS011;4939;52.00085300;4.17406100;2024-01-10T12:21:10;9.18;;;2.88;;
9799;SDS011;4939;52.00085300;4.17406100;2024-01-10T12:23:40;6.35;;;2.65;;
9799;SDS011;4939;52.00085300;4.17406100;2024-01-10T12:26:42;7.88;;;2.65;;
9799;SDS011;4939;52.00085300;4.17406100;2024-01-10T12:29:22;10.77;;;2.67;;
9799;SDS011;4939;52.00085300;4.17406100;2024-01-10T12:31:52;5.88;;;2.53;;
9799;SDS011;4939;52.00085300;4.17406100;2024-01-10T12:34:19;9.40;;;2.70;;
9799;SDS011;4939;52.00085300;4.17406100;2024-01-10T12:36:53;5.10;;;2.33;;
9799;SDS011;4939;52.00085300;4.17406100;2024-01-10T12:39:43;5.68;;;2.38;;
9799;SDS011;4939;52.00085300;4.17406100;2024-01-10T12:42:09;5.80;;;2.42;;
9799;SDS011;4939;52.00085300;4.17406100;2024-01-10T12:44:35;5.93;;;2.83;;
9799;SDS011;4939;52.00085300;4.17406100;2024-01-10T12:47:29;8.77;;;2.93;;
9799;SDS011;4939;52.00085300;4.17406100;2024-01-10T12:50:12;8.32;;;2.45;;
9799;SDS011;4939;52.00085300;4.17406100;2024-01-10T12:52:40;6.78;;;2.72;;
9799;SDS011;4939;52.00085300;4.17406100;2024-01-10T12:55:08;8.80;;;2.72;;
9799;SDS011;4939;52.00085300;4.17406100;2024-01-10T12:57:47;9.73;;;3.10;;
9799;SDS011;4939;52.00085300;4.17406100;2024-01-10T13:00:15;9.32;;;3.28;;
9799;SDS011;4939;52.00085300;4.17406100;2024-01-10T13:02:44;5.88;;;2.55;;
9799;SDS011;4939;52.00085300;4.17406100;2024-01-10T13:05:14;6.85;;;2.88;;
9799;SDS011;4939;52.00085300;4.17406100;2024-01-10T13:07:46;8.57;;;2.85;;
9799;SDS011;4939;52.00085300;4.17406100;2024-01-10T13:10:13;9.05;;;3.10;;
9799;SDS011;4939;52.00085300;4.17406100;2024-01-10T13:12:39;7.70;;;2.85;;
9799;SDS011;4939;52.00085300;4.17406100;2024-01-10T13:15:07;8.05;;;2.85;;
9799;SDS011;4939;52.00085300;4.17406100;2024-01-10T13:17:34;8.15;;;2.75;;
9799;SDS011;4939;52.00085300;4.17406100;2024-01-10T13:20:00;8.48;;;2.55;;
9799;SDS011;4939;52.00085300;4.17406100;2024-01-10T13:22:26;7.38;;;2.97;;
9799;SDS011;4939;52.00085300;4.17406100;2024-01-10T13:24:52;6.85;;;2.67;;
9799;SDS011;4939;52.00085300;4.17406100;2024-01-10T13:27:18;6.68;;;2.90;;